This is the latest recevied weather packets stored in our database for station/object K3TLB-13. If no packets are shown the sender has not sent any weather packets the latest 10 day(s).
| Time | Temp. | Humidity | Pressure | Rain* | Wind** | Luminosity | Snow |
|---|---|---|---|---|---|---|---|
| 1778240128 | 7.22° C | 71% | 1015 hPa | 0 mm | - | - | - |
| 1778240034 | 7.22° C | 71% | 1015 hPa | 0 mm | - | - | - |
| 1778239732 | 6.67° C | 74% | 1015 hPa | 0 mm | - | - | - |
| 1778239434 | 6.11° C | 76% | 1015 hPa | 0 mm | - | - | - |
| 1778239132 | 5° C | 81% | 1014.9 hPa | 0 mm | - | - | - |
| 1778238832 | 4.44° C | 79% | 1015 hPa | 0 mm | - | - | - |
| 1778238533 | 4.44° C | 80% | 1014.9 hPa | 0 mm | - | - | - |
| 1778238232 | 4.44° C | 79% | 1014.9 hPa | 0 mm | - | - | - |
| 1778237932 | 3.89° C | 82% | 1014.8 hPa | 0 mm | - | - | - |
| 1778237632 | 3.33° C | 84% | 1014.7 hPa | 0 mm | - | - | - |
| 1778237431 | 2.78° C | 84% | 1014.7 hPa | 0 mm | - | - | - |
| 1778237332 | 2.78° C | 84% | 1014.7 hPa | 0 mm | - | - | - |
| 1778237142 | 2.78° C | 83% | 1014.6 hPa | 0 mm | - | - | - |
| 1778237032 | 2.78° C | 84% | 1014.7 hPa | 0 mm | - | - | - |
| 1778236924 | 2.78° C | 84% | 1014.5 hPa | 0 mm | - | - | - |
| 1778236733 | 2.78° C | 83% | 1014.6 hPa | 0 mm | - | - | - |
| 1778236432 | 2.78° C | 84% | 1014.5 hPa | 0 mm | - | - | - |
| 1778236132 | 2.22° C | 84% | 1014.5 hPa | 0 mm | - | - | - |
| 1778235833 | 2.22° C | 85% | 1014.5 hPa | 0 mm | - | - | - |
| 1778235533 | 2.22° C | 82% | 1014.6 hPa | 0 mm | - | - | - |
| 1778235233 | 2.78° C | 80% | 1014.5 hPa | 0 mm | - | - | - |
| 1778234934 | 3.33° C | 78% | 1014.5 hPa | 0 mm | - | - | - |
| 1778234633 | 3.89° C | 77% | 1014.2 hPa | 0 mm | - | - | - |
| 1778234333 | 3.33° C | 77% | 1014.1 hPa | 0 mm | - | - | - |
| 1778234033 | 3.33° C | 78% | 1014.2 hPa | 0 mm | - | - | - |
* Rain latest hour (hover to see other rain measurements)
** Current wind speed in m/s (hover to see current wind gust speed)